Weather History for Waupaca, WI

Change the Weather History Date:

Wednesday, May 15, 2013

  Actual Average Record
Temperature  
Mean Temperature 70 °F -  
Max Temperature 77 °F 69 °F 89 °F (1991)
Min Temperature 60 °F 44 °F 31 °F (1973)
Cooling Degree Days 4    
Growing Degree Days 20 (Base 50)    
Moisture  
Dew Point 39 °F    
Average Humidity 34    
Maximum Humidity 69    
Minimum Humidity 20    
Precipitation  
Precipitation 0.00 in - - ()
Sea Level Pressure  
Sea Level Pressure 29.76 in    
Wind  
Wind Speed 10 mph (West)    
Max Wind Speed 15 mph    
Max Gust Speed 21 mph    
Visibility 10 miles    
Events      
Averages and records for this station are not official NWS values.
T = Trace of Precipitation, MM = Missing Value Source: NWS Daily Summary

Daily Weather History Graph

Daily Weather History Graph

Search for Another Location

Airport:

Trip Planner

Search our weather history database for the weather conditions in past years. The results will help you decide how hot, cold, wet, or windy it might be!

Date:

Astronomy

May. 15, 2013 Rise Set
Actual Time 5:28 AM CDT 8:16 PM CDT
Civil Twilight 4:55 AM CDT 8:50 PM CDT
Nautical Twilight 4:12 AM CDT 9:33 PM CDT
Astronomical Twilight 3:22 AM CDT 10:23 PM CDT
Moon 10:06 AM CDT (5/15) 12:01 AM CDT (5/15)
Length of Visible Light 15h 55m
Length of Day
14h 48m
Waxing Crescent, 27% of the Moon is Illuminated
May 15
Waxing Crescent
May 17
First Quarter
May 24
Full
May 31
Last Quarter
Jun 8
New

Hourly Weather History & Observations

Time (CDT) Temp. Dew Point Humidity Pressure Visibility Wind Dir Wind Speed Gust Speed Precip Events Conditions
12:15 AM 64.0 °F 53.8 °F 69% 29.52 in 10.0 mi WSW 10.4 mph - N/A   Clear
12:35 AM 69.6 °F 51.8 °F 53% 29.53 in 10.0 mi West 10.4 mph - N/A   Clear
12:55 AM 71.2 °F 47.5 °F 43% 29.54 in 10.0 mi West 13.8 mph 18.4 mph N/A   Clear
1:15 AM 73.4 °F 41.5 °F 32% 29.55 in 10.0 mi West 11.5 mph 18.4 mph N/A   Clear
1:35 AM 73.2 °F 38.5 °F 28% 29.56 in 10.0 mi West 11.5 mph 16.1 mph N/A   Clear
1:55 AM 72.7 °F 37.8 °F 28% 29.57 in 10.0 mi West 11.5 mph 17.3 mph N/A   Clear
2:15 AM 70.2 °F 38.7 °F 32% 29.58 in 10.0 mi West 9.2 mph - N/A   Clear
2:35 AM 69.4 °F 37.4 °F 31% 29.58 in 10.0 mi West 8.1 mph - N/A   Clear
2:55 AM 69.3 °F 36.9 °F 30% 29.59 in 10.0 mi West 9.2 mph - N/A   Clear
3:15 AM 68.7 °F 36.7 °F 31% 29.60 in 10.0 mi West 8.1 mph - N/A   Clear
3:35 AM 67.5 °F 37.4 °F 33% 29.61 in 10.0 mi West 9.2 mph - N/A   Clear
3:55 AM 67.5 °F 37.9 °F 34% 29.62 in 10.0 mi West 6.9 mph - N/A   Clear
4:15 AM 66.6 °F 38.8 °F 36% 29.64 in 10.0 mi West 8.1 mph - N/A   Clear
4:35 AM 66.2 °F 39.7 °F 38% 29.64 in 10.0 mi WNW 8.1 mph - N/A   Clear
4:55 AM 65.7 °F 41.0 °F 41% 29.66 in 10.0 mi WNW 8.1 mph - N/A   Clear
5:15 AM 64.9 °F 41.7 °F 43% 29.68 in 10.0 mi WNW 9.2 mph - N/A   Clear
5:35 AM 64.4 °F 43.0 °F 46% 29.68 in 10.0 mi West 8.1 mph - N/A   Clear
5:55 AM 64.4 °F 43.9 °F 47% 29.70 in 10.0 mi WNW 6.9 mph - N/A   Clear
6:15 AM 64.0 °F 44.6 °F 49% 29.71 in 10.0 mi West 8.1 mph - N/A   Clear
6:35 AM 64.0 °F 44.4 °F 49% 29.72 in 10.0 mi WNW 9.2 mph - N/A   Clear
6:55 AM 64.0 °F 45.1 °F 50% 29.73 in 10.0 mi WNW 8.1 mph - N/A   Clear
7:15 AM 65.1 °F 45.5 °F 49% 29.73 in 10.0 mi WNW 12.7 mph 17.3 mph N/A   Clear
7:35 AM 65.3 °F 46.2 °F 50% 29.75 in 10.0 mi NW 10.4 mph - N/A   Clear
7:55 AM 66.2 °F 46.6 °F 49% 29.76 in 10.0 mi NNW 10.4 mph - N/A   Clear
8:15 AM 67.5 °F 46.4 °F 47% 29.79 in 10.0 mi WNW 13.8 mph - N/A   Clear
8:35 AM 68.0 °F 45.7 °F 45% 29.81 in 10.0 mi NW 10.4 mph 16.1 mph N/A   Clear
8:55 AM 68.0 °F 44.1 °F 42% 29.82 in 10.0 mi NW 13.8 mph 20.7 mph N/A   Clear
9:15 AM 68.9 °F 42.8 °F 39% 29.82 in 10.0 mi NW 11.5 mph 20.7 mph N/A   Clear
9:35 AM 69.4 °F 41.9 °F 37% 29.84 in 10.0 mi NW 12.7 mph 16.1 mph N/A   Clear
9:55 AM 70.3 °F 41.4 °F 35% 29.84 in 10.0 mi WNW 10.4 mph 16.1 mph N/A   Clear
10:15 AM 71.1 °F 41.9 °F 35% 29.84 in 10.0 mi WNW 11.5 mph 16.1 mph N/A   Clear
10:35 AM 71.8 °F 37.8 °F 29% 29.84 in 10.0 mi NW 13.8 mph 20.7 mph N/A   Clear
10:55 AM 73.0 °F 38.1 °F 28% 29.84 in 10.0 mi WNW 11.5 mph 17.3 mph N/A   Clear
11:15 AM 73.6 °F 36.3 °F 26% 29.84 in 10.0 mi NNW 12.7 mph 18.4 mph N/A   Clear
11:35 AM 74.3 °F 38.5 °F 27% 29.84 in 10.0 mi West 10.4 mph 18.4 mph N/A   Clear
11:55 AM 74.5 °F 37.6 °F 26% 29.83 in 10.0 mi WNW 11.5 mph 20.7 mph N/A   Clear
12:15 PM 74.8 °F 35.4 °F 24% 29.82 in 10.0 mi WNW 10.4 mph 18.4 mph N/A   Clear
12:35 PM 74.5 °F 34.7 °F 23% 29.78 in 10.0 mi North 8.1 mph - N/A   Clear
12:55 PM 77.0 °F 34.2 °F 21% 29.83 in 10.0 mi NW 5.8 mph - N/A   Clear
1:15 PM 75.0 °F 34.5 °F 23% 29.84 in 10.0 mi West 10.4 mph - N/A   Clear
1:35 PM 73.8 °F 32.4 °F 22% 29.83 in 10.0 mi WNW 9.2 mph - N/A   Scattered Clouds
1:55 PM 73.2 °F 33.4 °F 23% 29.80 in 10.0 mi NW 8.1 mph - N/A   Scattered Clouds
2:15 PM 75.6 °F 32.4 °F 21% 29.83 in 10.0 mi West 6.9 mph - N/A   Scattered Clouds
2:35 PM 76.8 °F 32.9 °F 20% 29.82 in 10.0 mi West 8.1 mph 16.1 mph N/A   Clear
2:55 PM 73.6 °F 34.9 °F 24% 29.82 in 10.0 mi WSW 8.1 mph - N/A   Clear
3:15 PM 75.2 °F 35.8 °F 24% 29.81 in 10.0 mi WSW 11.5 mph - N/A   Clear
3:35 PM 76.8 °F 35.1 °F 22% 29.81 in 10.0 mi West 13.8 mph 18.4 mph N/A   Clear
3:55 PM 76.5 °F 36.3 °F 23% 29.80 in 10.0 mi West 11.5 mph - N/A   Clear
4:15 PM 76.8 °F 36.5 °F 23% 29.80 in 10.0 mi WSW 15.0 mph - N/A   Clear
4:35 PM 76.8 °F 36.1 °F 23% 29.80 in 10.0 mi WSW 10.4 mph - N/A   Clear
4:55 PM 77.2 °F 34.0 °F 21% 29.80 in 10.0 mi WNW 6.9 mph - N/A   Clear
5:15 PM 77.2 °F 34.7 °F 21% 29.79 in 10.0 mi West 10.4 mph 16.1 mph N/A   Clear
5:35 PM 76.5 °F 34.0 °F 21% 29.79 in 10.0 mi West 8.1 mph 19.6 mph N/A   Clear
5:55 PM 76.3 °F 33.4 °F 21% 29.79 in 10.0 mi West 9.2 mph - N/A   Clear
6:15 PM 76.3 °F 34.2 °F 22% 29.79 in 10.0 mi WNW 9.2 mph - N/A   Clear
6:35 PM 76.1 °F 33.4 °F 21% 29.79 in 10.0 mi West 10.4 mph - N/A   Clear
6:55 PM 75.2 °F 34.3 °F 23% 29.79 in 10.0 mi West 9.2 mph - N/A   Clear
7:15 PM 74.5 °F 35.1 °F 24% 29.79 in 10.0 mi West 5.8 mph - N/A   Clear
7:35 PM 71.6 °F 37.2 °F 29% 29.80 in 10.0 mi West 6.9 mph - N/A   Clear
7:55 PM 70.3 °F 37.4 °F 30% 29.80 in 10.0 mi West 6.9 mph - N/A   Clear
8:15 PM 68.2 °F 37.8 °F 33% 29.81 in 10.0 mi WSW 5.8 mph - N/A   Clear
8:35 PM 67.5 °F 37.4 °F 33% 29.81 in 10.0 mi WSW 4.6 mph - N/A   Clear
8:55 PM 66.0 °F 38.3 °F 36% 29.81 in 10.0 mi WSW 5.8 mph - N/A   Clear
9:15 PM 64.8 °F 39.2 °F 39% 29.82 in 10.0 mi SW 4.6 mph - N/A   Clear
9:35 PM 64.0 °F 39.4 °F 40% 29.82 in 10.0 mi WSW 3.5 mph - N/A   Clear
9:55 PM 63.9 °F 40.3 °F 42% 29.82 in 10.0 mi WSW 3.5 mph - N/A   Clear
10:15 PM 62.2 °F 40.3 °F 44% 29.83 in 10.0 mi WSW 4.6 mph - N/A   Clear
10:35 PM 64.4 °F 39.2 °F 40% 29.83 in 10.0 mi WSW 8.1 mph - N/A   Clear
10:55 PM 63.5 °F 40.1 °F 42% 29.83 in 10.0 mi West 6.9 mph - N/A   Clear
11:15 PM 63.9 °F 40.6 °F 43% 29.82 in 10.0 mi West 8.1 mph - N/A   Clear
11:35 PM 62.4 °F 40.8 °F 45% 29.83 in 10.0 mi WSW 5.8 mph - N/A   Clear
11:55 PM 60.8 °F 41.2 °F 48% 29.83 in 10.0 mi West 4.6 mph - N/A   Clear